Indian Springs, Nevada Weather observations

Data are for observation ending at time listed.
 Day   Time    Ave.   Ave.  Ave.  Vector   Max.   Stn.    Total    Solar   Ave.  
  of    of     Air    Rel.  Wind   Wind    Wind   Baro.  Precip.   Rad.    Soil  
Year   Day     Temp.  Hum.  Speed  Dir.    Gust   Pres.                    Temp. 
2015   (PST)    F      %     mph   deg.    mph     mb.     in.     W/m2     F   
------------------------------------------------------------------------------
  26   20:00   53.8    69    3.8   106      8.0   908.3    0.00       0    56.9
  26   20:10   53.2    73    2.5   106      5.3   908.3    0.01       0    56.8
  26   20:20   52.8    77    3.8    76      7.7   908.2    0.00       0    56.6
  26   20:30   51.9    81    3.4    91      7.3   908.3    0.00       0    56.5
  26   20:40   52.3    73    3.1   100      5.6   908.2    0.00       0    56.4
  26   20:50   52.1    76    3.0    87      5.1   908.3    0.00       0    56.2
  26   21:00   51.7    82    2.6    54      4.8   908.3    0.00       0    56.1
  26   21:10   51.2    84    1.9    80      5.4   908.1    0.00       0    55.9
  26   21:20   51.0    83    1.9    42      3.2   908.0    0.00       0    55.8
  26   21:30   50.9    84    1.0    53      3.7   908.3    0.00       0    55.7
  26   21:40   50.9    84    1.0   123      3.4   908.6    0.00       0    55.5
  26   21:50   51.1    83    1.9   202      4.3   908.7    0.00       0    55.4
  26   22:00   51.3    80    2.3   133      4.9   908.9    0.00       0    55.3
  26   22:10   51.3    79    0.9   144      5.6   909.0    0.00       0    55.2
  26   22:20   51.3    79    0.3   346      2.5   909.1    0.00       0    55.1
  26   22:30   51.2    80    1.2   353      3.0   909.1    0.00       0    54.9
  26   22:40   53.4    64    3.4   149      8.3   909.2    0.00       0    54.8
  26   22:50   55.5    55    5.3   164     12.1   909.1    0.00       0    54.7
  26   23:00   55.4    55    4.0   160      8.6   909.1    0.00       0    54.6
  26   23:10   55.2    54    4.5   156      9.0   909.0    0.00       0    54.5
  26   23:20   55.5    52    4.9   146     14.1   909.1    0.00       0    54.4
  26   23:30   54.8    54    2.8   122      8.7   909.3    0.00       0    54.3
  26   23:40   53.1    65    6.9    91     12.4   909.1    0.00       0    54.2
  26   23:50   52.3    67    6.0   100     11.8   908.9    0.00       0    54.1
  27    0:00   52.4    66    4.9    99     11.0   908.9    0.00       0    54.0
  27    0:10   52.1    68    5.1    95     11.2   908.8    0.00       0    53.9
  27    0:20   51.4    72    4.1    86      8.2   908.8    0.00       0    53.8
  27    0:30   50.8    74    3.6    95      8.9   908.5    0.00       0    53.7
  27    0:40   50.8    74    1.1    52      3.6   908.8    0.00       0    53.7
  27    0:50   50.8    76    1.4   354      3.1   908.8    0.00       0    53.6
  27    1:00   49.7    82    2.7    30      5.8   908.7    0.00       0    53.5
  27    1:10   49.4    82    3.6    52      6.3   908.9    0.00       0    53.4
  27    1:20   49.6    80    3.2    55      6.6   908.8    0.00       0    53.3
  27    1:30   49.7    78    3.2    79      5.6   908.9    0.00       0    53.2
  27    1:40   51.0    70    5.0    91      9.8   908.6    0.00       0    53.2
  27    1:50   51.6    68    5.9    92     11.4   908.8    0.00       0    53.0
  27    2:00   51.1    71    5.6    78     10.4   908.6    0.00       0    53.0
  27    2:10   51.1    71    6.4    88     12.1   908.7    0.00       0    52.9
  27    2:20   51.4    69    6.5    92     10.8   908.7    0.00       0    52.8
  27    2:30   51.2    70    6.9    93     12.2   908.6    0.00       0    52.8
  27    2:40   51.2    70    6.8   102     12.9   908.6    0.00       0    52.7
  27    2:50   51.3    70    5.3   108     11.4   908.7    0.00       0    52.7
  27    3:00   51.1    71    5.1   112     11.7   908.8    0.00       0    52.6
  27    3:10   50.8    72    5.4   114     12.9   908.9    0.00       0    52.5
  27    3:20   50.6    72    7.7   108     13.7   908.7    0.00       0    52.5
  27    3:30   50.3    74    6.2   106     14.2   908.5    0.00       0    52.4
  27    3:40   50.0    74    6.3   108     11.0   908.6    0.00       0    52.3
  27    3:50   50.0    75    4.4   110      9.6   908.7    0.00       0    52.3
  27    4:00   50.0    75    3.5   111      7.7   908.7    0.00       0    52.2
  27    4:10   50.0    76    4.9   114     12.7   908.7    0.00       0    52.1
  27    4:20   49.9    77    6.1   108     12.8   909.0    0.00       0    52.1
  27    4:30   49.6    79    6.4   105     11.8   908.9    0.00       0    52.0
  27    4:40   49.3    80    6.7   108     15.1   909.0    0.00       0    51.9
  27    4:50   49.1    82    6.9   102     16.4   908.9    0.00       0    51.9
  27    5:00   48.8    83    7.5   105     14.2   908.9    0.00       0    51.8
  27    5:10   48.6    83    6.3   108     13.4   908.8    0.00       0    51.8
  27    5:20   48.3    84    5.7   111     12.4   909.0    0.00       0    51.7
  27    5:30   48.1    85    6.1   106     11.0   909.1    0.00       0    51.7
  27    5:40   47.8    86    6.3   104     12.0   909.0    0.00       0    51.6
  27    5:50   47.7    86    6.4    97     12.4   909.0    0.00       0    51.5
  27    6:00   47.6    86    5.9    99     11.0   909.0    0.00       0    51.4
  27    6:10   47.5    86    3.2   118      9.3   909.1    0.00       0    51.4
  27    6:20   47.3    86    1.7   117      6.1   909.3    0.00       0    51.3
  27    6:30   47.3    87    3.2   109      7.2   909.4    0.00       0    51.2
  27    6:40   47.3    88    5.1    97      9.1   909.5    0.00       0    51.1
  27    6:50   47.3    87    3.8   107     10.3   909.7    0.00       2    51.0
  27    7:00   48.4    82    2.8   118      9.0   909.9    0.00       5    50.9
  27    7:10   48.9    80    1.5    98      4.8   910.2    0.00       8    50.9
  27    7:20   48.8    83    2.5    96      6.4   910.2    0.00      31    50.8
  27    7:30   48.7    83    1.4   126      6.4   910.4    0.00      83    50.7
  27    7:40   49.1    81    0.9   161      3.2   910.7    0.00     144    50.7
  27    7:50   49.9    78    2.0   243      3.4   910.8    0.00     175    50.7
  27    8:00   50.0    79    1.0   317      3.1   910.9    0.00      70    50.7
  27    8:10   50.0    80    0.8   316      3.1   911.0    0.00      78    50.7
  27    8:20   50.3    79    1.3   234      2.5   911.1    0.00     222    50.7
  27    8:30   51.2    77    0.7   352      2.1   911.4    0.00     164    50.8
  27    8:40   51.4    76    1.5    69      4.2   911.4    0.00     167    50.8
  27    8:50   52.1    74    1.8    96      5.3   911.5    0.00     306    50.8
  27    9:00   52.6    75    3.8   107      8.6   911.6    0.00     215    50.9
  27    9:10   51.5    79    4.8   105      8.9   911.8    0.00     154    50.9
  27    9:20   51.4    80    5.1    99      9.7   911.7    0.00     213    51.0
  27    9:30   51.8    78    6.0   100     10.7   911.9    0.00     247    51.1
  27    9:40   52.2    78    5.7    94     10.4   912.0    0.00     231    51.2
  27    9:50   52.4    77    5.1    96     10.1   912.1    0.00     197    51.4
  27   10:00   52.8    76    4.8    96     10.8   912.1    0.00     197    51.5
  27   10:10   53.6    74    4.8    93      9.5   912.2    0.00     253    51.6
  27   10:20   54.2    73    6.2    87     13.4   912.4    0.00     268    51.7
  27   10:30   54.2    73    6.7    90     12.2   912.5    0.00     426    51.9
  27   10:40   54.2    73    6.4    93     11.0   912.5    0.00     232    52.1
  27   10:50   53.9    74    5.8    87     12.3   912.4    0.00     217    52.3
  27   11:00   53.9    73    4.7    97      9.6   912.3    0.00     192    52.5
  27   11:10   54.4    71    4.7    97     10.7   912.2    0.00     246    52.7
  27   11:20   54.8    70    4.9    94     10.5   912.1    0.00     317    52.9
  27   11:30   55.4    68    5.2    79      9.3   912.0    0.00     227    53.1
  27   11:40   55.4    67    3.6   102     10.0   912.0    0.00     192    53.2
  27   11:50   55.8    65    3.8    92      8.7   911.9    0.00     276    53.4
  27   12:00   56.2    64    4.1    84      9.3   911.9    0.00     470    53.5
  27   12:10   55.7    66    4.7    77      9.2   911.7    0.00     279    53.7
  27   12:20   55.1    67    4.9    72      8.7   911.6    0.00     236    53.9
  27   12:30   55.1    66    3.6    67      8.7   911.4    0.00     188    54.1
  27   12:40   55.8    66    3.9    67      8.8   911.1    0.00     595    54.3
  27   12:50   56.8    63    2.9    85      7.6   911.1    0.00     574    54.4
  27   13:00   57.4    61    3.2    54      8.0   911.2    0.00     650    54.6
  27   13:10   57.8    60    3.3    83      7.2   911.3    0.00     510    54.8
  27   13:20   56.9    60    3.3    70      6.5   911.3    0.00     266    55.1
  27   13:30   56.9    62    3.0    82      7.2   911.3    0.00     207    55.4
  27   13:40   56.9    62    3.5    67      7.3   911.1    0.00     243    55.7
  27   13:50   57.3    60    3.3    59      6.2   911.1    0.00     370    55.9
  27   14:00   57.3    60    4.0    86      8.2   911.0    0.00     376    56.2
  27   14:10   57.6    60    4.0    67      8.0   911.0    0.00     341    56.3
  27   14:20   57.5    60    4.5    74      9.1   911.0    0.00     354    56.5
  27   14:30   57.0    62    3.8    52      7.6   910.8    0.00     143    56.7
  27   14:40   56.5    63    4.5    83      9.9   910.8    0.00     155    56.8
  27   14:50   56.4    62    2.8   100      6.0   910.7    0.00     107    57.0
  27   15:00   56.2    61    2.9    85      7.0   910.6    0.00      92    57.1
  27   15:10   56.0    62    3.6    73      8.2   910.8    0.00      97    57.1
  27   15:20   55.7    64    4.3    90      8.0   910.6    0.00      82    57.2
  27   15:30   55.5    65    3.6    89      6.9   910.4    0.00     118    57.2
  27   15:40   55.7    65    3.0    80      6.6   910.4    0.00      85    57.2
  27   15:50   55.6    65    3.6    90      7.7   910.5    0.00      80    57.1
  27   16:00   55.4    66    3.2    87      6.1   910.5    0.00      56    57.1
  27   16:10   55.3    66    3.2    97      7.2   910.5    0.00      49    57.0
  27   16:20   55.4    66    1.9   114      4.7   910.4    0.00      75    56.9
  27   16:30   55.7    65    2.5    93      5.0   910.3    0.00      47    56.9
  27   16:40   55.6    65    2.2   104      5.0   910.4    0.00      28    56.8
  27   16:50   55.0    66    1.5   104      3.4   910.5    0.00      15    56.8
  27   17:00   54.3    68    1.4   100      3.2   910.4    0.00      10    56.7
  27   17:10   53.7    70    1.3    94      2.0   910.2    0.00       5    56.6
  27   17:20   53.1    71    0.5    55      2.7   910.2    0.00       2    56.5
  27   17:30   52.7    75    1.5    79      2.9   910.2    0.00       0    56.4
  27   17:40   52.1    77    1.3    86      2.1   910.1    0.00       0    56.2
  27   17:50   51.6    78    1.1    66      2.0   910.0    0.00       0    56.0
  27   18:00   51.2    80    0.5   105      3.1   910.1    0.00       0    55.9
  27   18:10   50.8    80    0.7   234      2.0   910.3    0.00       0    55.7
  27   18:20   50.6    79    0.2   150      1.1   910.2    0.00       0    55.6
  27   18:30   49.8    79    0.1   204      0.7   910.2    0.00       0    55.4
  27   18:40   49.8    78    0.7   292      2.0   910.3    0.00       0    55.3
  27   18:50   49.8    81    1.4   310      3.8   910.3    0.00       0    55.1
  27   19:00   49.9    82    1.0   245      2.0   910.3    0.00       0    55.0
  27   19:10   49.5    81    0.1   240      0.9   910.2    0.00       0    54.8
  27   19:20   49.2    82    1.1   247      2.2   910.2    0.00       0    54.6
  27   19:30   48.7    81    2.3   237      3.2   910.3    0.00       0    54.5
  27   19:40   48.2    82    1.9   243      3.0   910.3    0.00       0    54.3
  27   19:50   47.8    84    2.0   232      3.6   910.3    0.00       0    54.2

Return to Indian Springs, Nevada graphs page.


Western Regional Climate Center,wrcc@dri.edu